Wine Hill, Illinois
Current Conditions -  °F | °C
As of 1:35 AM on Saturday 25 Oct 2014 (Local Time) from KSAR Reporting Station
Clear Clear  
Wind Chill: 60°   Ceiling: Unl
Heat Index: 60°   Visibility: 10mi
Dew Point: 54°   Wind: 5mph
Humidity: 81%   Direction: 190°S
Pressure: 30.02"   Gusts: NA
Location:  37.9878°N, 89.6781°W
Report Text: KSAR 250635Z AUTO 19004KT 10SM CLR 15/12 A3002 RMK AO2 T01540121
Loading
Personal Weather Stations






























Interactive Weather Map
Tropical Storm Tracking
New forecast layout! Learn more

10-Day Weather Forecast

Advertisements
Track Severe Weather on mobile